Time;durP1;ratioP1;P1;durP2;ratioP2;P2;SDS_P1;SDS_P2;PMS_P1;PMS_P2;Temp;Humidity;BMP_temperature;BMP_pressure;BME280_temperature;BME280_humidity;BME280_pressure;Samples;Min_cycle;Max_cycle;Signal;HPM_P1;HPM_P2
2023/03/16 00:01:07;;;;;;;5.90;4.70;;;;;;;11.82;64.87;100903.69;107526;1264;22506;-49
2023/03/16 00:03:36;;;;;;;6.50;4.40;;;;;;;11.85;64.78;100902.58;107510;1267;25337;-49
2023/03/16 00:06:06;;;;;;;5.50;4.70;;;;;;;11.85;64.79;100898.42;107172;1266;25366;-49
2023/03/16 00:08:37;;;;;;;7.40;4.80;;;;;;;11.84;64.80;100897.90;107468;1264;22950;-49
2023/03/16 00:11:06;;;;;;;7.50;5.00;;;;;;;11.84;64.71;100897.91;107263;1271;25414;-48
2023/03/16 00:13:35;;;;;;;7.10;4.50;;;;;;;11.83;64.65;100894.10;107464;1267;23898;-49
2023/03/16 00:16:06;;;;;;;5.10;4.20;;;;;;;11.82;64.63;100883.88;107379;1248;25327;-49
2023/03/16 00:18:38;;;;;;;9.60;4.80;;;;;;;11.81;64.37;100887.38;107376;1264;22521;-49
2023/03/16 00:21:06;;;;;;;5.00;4.50;;;;;;;11.79;64.39;100884.13;106568;1264;1003415;-49
2023/03/16 00:23:36;;;;;;;7.30;4.40;;;;;;;11.76;64.42;100883.86;107150;1267;25321;-49
2023/03/16 00:26:07;;;;;;;6.00;4.50;;;;;;;11.71;64.41;100887.27;107470;1264;22528;-49
2023/03/16 00:28:38;;;;;;;5.80;4.60;;;;;;;11.68;64.38;100886.14;107366;1264;25404;-49
2023/03/16 00:31:10;;;;;;;5.50;4.10;;;;;;;11.67;64.37;100884.77;106407;1264;1002997;-49
2023/03/16 00:33:43;;;;;;;6.20;4.40;;;;;;;11.66;64.36;100881.47;107182;1267;25226;-49
2023/03/16 00:36:12;;;;;;;6.40;5.10;;;;;;;11.65;64.32;100881.84;107195;1264;25350;-48
2023/03/16 00:38:48;;;;;;;7.20;5.50;;;;;;;11.63;64.37;100879.45;107407;1264;25346;-49
2023/03/16 00:41:17;;;;;;;6.20;5.50;;;;;;;11.62;64.30;100879.30;107355;1267;25321;-49
2023/03/16 00:43:47;;;;;;;7.60;5.10;;;;;;;11.61;64.29;100883.85;107317;1264;22524;-52
2023/03/16 00:46:16;;;;;;;7.70;5.20;;;;;;;11.59;64.23;100877.80;107187;1264;22693;-51
2023/03/16 00:48:45;;;;;;;7.00;6.00;;;;;;;11.59;64.11;100877.28;107291;1263;25368;-50
2023/03/16 00:51:16;;;;;;;5.10;4.60;;;;;;;11.57;64.10;100871.77;107367;1267;25384;-50
2023/03/16 00:53:45;;;;;;;5.90;4.70;;;;;;;11.55;64.01;100870.77;107360;1264;22633;-51
2023/03/16 00:56:19;;;;;;;8.60;4.50;;;;;;;11.54;63.89;100872.90;107238;1264;25463;-50
2023/03/16 00:58:48;;;;;;;5.30;4.50;;;;;;;11.55;63.84;100872.18;107330;1264;25324;-50
2023/03/16 01:01:18;;;;;;;5.30;4.50;;;;;;;11.53;63.86;100872.21;107368;1264;25383;-50
2023/03/16 01:03:47;;;;;;;7.60;4.90;;;;;;;11.52;63.84;100868.96;107157;1267;25497;-50
2023/03/16 01:06:16;;;;;;;8.80;5.30;;;;;;;11.51;63.85;100864.65;107387;1264;25342;-50
2023/03/16 01:08:44;;;;;;;5.60;4.70;;;;;;;11.48;63.87;100859.48;107079;1267;22539;-50
2023/03/16 01:11:18;;;;;;;8.40;5.10;;;;;;;11.46;63.89;100861.27;107268;1270;22534;-50
2023/03/16 01:13:47;;;;;;;6.20;5.00;;;;;;;11.43;63.84;100864.98;107325;1264;22659;-50
2023/03/16 01:16:17;;;;;;;4.80;4.00;;;;;;;11.43;63.72;100865.34;107496;1263;22537;-50
2023/03/16 01:18:51;;;;;;;5.70;4.10;;;;;;;11.42;63.55;100867.97;107361;1264;22627;-51
2023/03/16 01:21:21;;;;;;;5.80;5.20;;;;;;;11.40;63.53;100866.95;107395;1264;22535;-50
2023/03/16 01:23:52;;;;;;;6.90;4.70;;;;;;;11.40;63.48;100868.18;107415;1264;22516;-49
2023/03/16 01:26:24;;;;;;;8.40;4.40;;;;;;;11.39;63.64;100871.34;107394;1264;25370;-50
2023/03/16 01:28:53;;;;;;;6.00;4.60;;;;;;;11.38;63.62;100874.13;107458;1251;24239;-50
2023/03/16 01:31:22;;;;;;;5.00;4.40;;;;;;;11.36;63.54;100877.45;107184;1264;22612;-50
2023/03/16 01:33:51;;;;;;;7.30;4.40;;;;;;;11.36;63.55;100881.81;107287;1264;25360;-49
2023/03/16 01:36:23;;;;;;;7.30;4.70;;;;;;;11.35;63.57;100878.17;107372;1264;25377;-49
2023/03/16 01:39:07;;;;;;;5.70;4.50;;;;;;;11.35;63.60;100876.27;106529;1270;1003338;-49
2023/03/16 01:41:40;;;;;;;7.40;4.90;;;;;;;11.34;63.64;100879.94;107194;1247;22636;-50
2023/03/16 01:44:13;;;;;;;6.10;5.00;;;;;;;11.31;63.78;100883.15;107340;1264;25318;-49
2023/03/16 01:46:43;;;;;;;6.90;5.00;;;;;;;11.27;63.96;100890.69;107155;1262;22654;-49
2023/03/16 01:49:24;;;;;;;7.50;4.90;;;;;;;11.24;64.09;100889.71;107225;1263;25412;-49
2023/03/16 01:52:12;;;;;;;7.00;5.20;;;;;;;11.24;64.09;100888.52;107153;1264;22521;-49
2023/03/16 01:54:41;;;;;;;7.80;5.20;;;;;;;11.24;64.18;100893.73;107224;1256;22582;-49
2023/03/16 01:57:18;;;;;;;5.90;4.50;;;;;;;11.23;64.25;100892.54;107331;1264;23917;-50
2023/03/16 02:00:18;;;;;;;6.30;4.80;;;;;;;11.24;64.29;100896.50;106649;1264;1002472;-49
2023/03/16 02:02:57;;;;;;;5.90;4.70;;;;;;;11.25;64.35;100890.23;107266;1264;25340;-50
2023/03/16 02:05:49;;;;;;;6.30;4.40;;;;;;;11.27;64.39;100888.61;107271;1264;25360;-49
2023/03/16 02:08:18;;;;;;;6.60;4.50;;;;;;;11.29;64.37;100887.18;107385;1264;22530;-49
2023/03/16 02:10:46;;;;;;;4.80;4.10;;;;;;;11.30;64.42;100888.21;107031;1270;24484;-49
2023/03/16 02:13:17;;;;;;;4.90;4.40;;;;;;;11.25;64.67;100889.88;107094;1266;25427;-50
2023/03/16 02:15:47;;;;;;;5.70;4.70;;;;;;;11.30;64.59;100893.06;107315;1264;25348;-50
2023/03/16 02:18:16;;;;;;;6.90;5.30;;;;;;;11.31;64.66;100894.44;107277;1265;25342;-50
2023/03/16 02:20:50;;;;;;;8.30;5.90;;;;;;;11.31;64.71;100893.20;107151;1264;25453;-51
2023/03/16 02:23:19;;;;;;;5.90;5.10;;;;;;;11.33;64.84;100893.87;107221;1251;25407;-49
2023/03/16 02:26:07;;;;;;;6.50;5.80;;;;;;;11.33;64.99;100896.29;107356;1264;25401;-49
2023/03/16 02:28:44;;;;;;;6.80;6.10;;;;;;;11.33;65.03;100894.39;107435;1264;22527;-49
2023/03/16 02:31:18;;;;;;;6.40;5.60;;;;;;;11.32;65.13;100893.36;107372;1267;25308;-49
2023/03/16 02:37:12;;;;;;;9.10;6.70;;;;;;;11.33;65.32;100896.12;103695;1298;544954;-49
2023/03/16 02:39:44;;;;;;;14.50;10.20;;;;;;;11.33;65.40;100896.11;106262;1284;22662;-49
2023/03/16 02:42:17;;;;;;;16.60;11.50;;;;;;;11.35;65.48;100895.73;106168;1280;24302;-49
2023/03/16 02:44:49;;;;;;;14.70;11.40;;;;;;;11.37;65.48;100899.33;106063;1285;22543;-49
2023/03/16 02:47:41;;;;;;;17.50;13.10;;;;;;;11.38;65.43;100895.14;105934;1282;22556;-49
2023/03/16 02:50:12;;;;;;;16.90;13.70;;;;;;;11.39;65.46;100895.84;105549;1281;237067;-48
2023/03/16 02:52:41;;;;;;;15.20;12.70;;;;;;;11.37;65.54;100897.23;105931;1285;25363;-49
2023/03/16 02:55:10;;;;;;;14.90;12.70;;;;;;;11.33;65.63;100900.79;105840;1285;23884;-49
2023/03/16 02:57:41;;;;;;;14.00;12.40;;;;;;;11.31;65.69;100908.84;105555;1289;25342;-49
2023/03/16 03:00:16;;;;;;;15.80;12.10;;;;;;;11.29;65.77;100902.96;105915;1288;22550;-50
2023/03/16 03:02:47;;;;;;;12.80;11.50;;;;;;;11.24;65.92;100902.93;105691;1289;22543;-49
2023/03/16 03:05:16;;;;;;;12.90;11.50;;;;;;;11.19;66.14;100900.62;105678;1285;25440;-49
2023/03/16 03:07:50;;;;;;;17.00;11.80;;;;;;;11.16;66.37;100896.86;105883;1287;25462;-49
2023/03/16 03:10:20;;;;;;;16.70;12.60;;;;;;;11.13;66.54;100895.17;105536;1292;22588;-49
2023/03/16 03:12:49;;;;;;;17.00;12.70;;;;;;;11.11;66.59;100899.23;105850;1288;22665;-49
2023/03/16 03:15:18;;;;;;;12.10;9.90;;;;;;;11.08;66.78;100903.09;105824;1270;24285;-49
2023/03/16 03:18:01;;;;;;;10.80;9.40;;;;;;;11.05;66.98;100904.39;106331;1278;26804;-49
2023/03/16 03:20:30;;;;;;;10.30;7.80;;;;;;;11.03;67.19;100904.77;106315;1282;22543;-49
2023/03/16 03:23:01;;;;;;;9.00;7.40;;;;;;;11.02;67.31;100908.46;106261;1282;25513;-49
2023/03/16 03:25:33;;;;;;;8.60;7.70;;;;;;;11.00;67.44;100904.33;106292;1280;26668;-49
2023/03/16 03:28:07;;;;;;;11.30;7.90;;;;;;;11.00;67.54;100902.60;106640;1273;22534;-52
2023/03/16 03:30:36;;;;;;;9.70;8.00;;;;;;;11.01;67.49;100905.35;106776;1275;22517;-49
2023/03/16 03:33:04;;;;;;;12.70;8.00;;;;;;;11.01;67.59;100904.83;106754;1270;25379;-51
2023/03/16 03:35:35;;;;;;;13.70;8.60;;;;;;;11.02;67.62;100907.25;106816;1271;25518;-51
2023/03/16 03:38:03;;;;;;;9.90;8.00;;;;;;;11.03;67.62;100905.46;106715;1271;25342;-51
2023/03/16 03:40:33;;;;;;;9.80;7.80;;;;;;;11.03;67.61;100903.23;106728;1278;25251;-51
2023/03/16 03:43:03;;;;;;;8.30;7.50;;;;;;;11.01;67.76;100903.25;106099;1273;1003532;-51
2023/03/16 03:45:33;;;;;;;10.20;7.70;;;;;;;10.99;67.70;100908.00;106632;1279;24303;-51
2023/03/16 03:48:02;;;;;;;9.10;8.10;;;;;;;10.94;67.96;100905.32;106694;1273;25385;-51
2023/03/16 03:50:31;;;;;;;9.70;8.50;;;;;;;10.93;68.23;100906.57;106775;1273;25325;-51
2023/03/16 03:53:26;;;;;;;12.10;9.00;;;;;;;10.93;68.29;100904.46;106698;1276;25435;-49
2023/03/16 03:56:12;;;;;;;13.40;10.30;;;;;;;10.96;68.32;100910.32;106685;1273;25325;-50
2023/03/16 03:58:42;;;;;;;14.00;10.40;;;;;;;10.98;68.38;100908.53;106805;1272;25492;-49
2023/03/16 04:01:11;;;;;;;13.70;11.60;;;;;;;10.99;68.27;100909.20;106823;1271;25350;-49
2023/03/16 04:03:40;;;;;;;14.90;13.10;;;;;;;10.97;68.26;100908.55;106621;1276;25450;-49
2023/03/16 04:06:14;;;;;;;18.80;14.70;;;;;;;10.97;68.46;100907.17;106657;1274;22530;-49
2023/03/16 04:08:43;;;;;;;18.90;15.80;;;;;;;10.97;68.42;100906.99;106728;1272;25347;-49
2023/03/16 04:11:14;;;;;;;21.00;15.80;;;;;;;10.96;68.31;100910.15;106697;1278;23859;-50
2023/03/16 04:13:43;;;;;;;28.80;17.70;;;;;;;10.93;68.40;100910.02;106834;1274;25328;-49
2023/03/16 04:16:15;;;;;;;19.70;16.60;;;;;;;10.89;68.48;100910.61;106874;1265;25520;-50
2023/03/16 04:18:46;;;;;;;19.20;16.90;;;;;;;10.86;68.49;100916.26;106814;1274;23946;-49
2023/03/16 04:21:16;;;;;;;22.30;18.00;;;;;;;10.82;68.35;100924.48;106644;1275;25331;-49
2023/03/16 04:23:47;;;;;;;24.30;20.20;;;;;;;10.77;68.53;100929.27;106809;1276;25360;-49
2023/03/16 04:26:15;;;;;;;14.70;12.20;;;;;;;10.72;68.43;100921.91;106446;1279;24507;-50
2023/03/16 04:28:46;;;;;;;11.40;9.60;;;;;;;10.65;68.20;100923.09;106775;1271;25451;-49
2023/03/16 04:31:18;;;;;;;7.60;6.20;;;;;;;10.58;68.04;100929.83;106735;1273;25394;-49
2023/03/16 04:33:48;;;;;;;7.40;6.70;;;;;;;10.54;67.94;100924.52;107221;1267;22521;-49
2023/03/16 04:36:16;;;;;;;7.70;6.00;;;;;;;10.52;67.72;100930.11;106821;1274;22521;-49
2023/03/16 04:38:46;;;;;;;5.50;4.90;;;;;;;10.49;67.66;100930.84;106989;1270;25350;-50
2023/03/16 04:41:15;;;;;;;7.60;5.40;;;;;;;10.48;67.67;100936.42;107250;1273;23481;-50
2023/03/16 04:43:54;;;;;;;5.60;5.00;;;;;;;10.49;67.42;100940.56;106335;1261;1002890;-50
2023/03/16 04:46:25;;;;;;;6.80;5.20;;;;;;;10.48;67.19;100945.09;106168;1269;1003066;-50
2023/03/16 04:48:57;;;;;;;5.40;4.90;;;;;;;10.47;67.09;100949.45;107255;1261;22574;-50
2023/03/16 04:51:28;;;;;;;5.30;4.30;;;;;;;10.46;67.11;100953.28;107048;1268;22635;-50
2023/03/16 04:54:04;;;;;;;5.30;4.80;;;;;;;10.47;66.95;100951.34;107044;1274;26567;-50
2023/03/16 04:56:40;;;;;;;5.00;4.50;;;;;;;10.47;66.81;100950.49;107390;1272;25322;-50
2023/03/16 04:59:26;;;;;;;4.10;3.50;;;;;;;10.45;66.60;100955.90;106980;1272;25333;-50
2023/03/16 05:02:13;;;;;;;5.60;4.10;;;;;;;10.42;66.52;100961.16;106892;1274;22517;-50
2023/03/16 05:04:42;;;;;;;4.70;3.80;;;;;;;10.44;66.67;100969.96;107060;1274;24243;-50
2023/03/16 05:07:14;;;;;;;5.50;4.40;;;;;;;10.47;66.76;100971.98;107148;1267;25462;-50
2023/03/16 05:09:45;;;;;;;4.10;3.70;;;;;;;10.51;66.82;100971.92;107187;1269;25358;-50
2023/03/16 05:12:14;;;;;;;4.90;3.30;;;;;;;10.54;66.84;100974.30;107335;1264;25312;-50
2023/03/16 05:14:47;;;;;;;3.20;2.90;;;;;;;10.59;66.98;100970.04;106911;1271;25554;-49
2023/03/16 05:17:34;;;;;;;4.20;2.70;;;;;;;10.64;66.87;100973.59;107014;1270;25337;-50
2023/03/16 05:20:07;;;;;;;3.30;3.00;;;;;;;10.66;66.94;100973.04;107125;1269;22657;-50
2023/03/16 05:22:44;;;;;;;3.60;3.10;;;;;;;10.70;67.11;100972.61;106929;1269;22654;-50
2023/03/16 05:25:18;;;;;;;3.90;3.50;;;;;;;10.77;67.17;100973.88;107064;1269;25309;-50
2023/03/16 05:27:49;;;;;;;6.10;3.80;;;;;;;10.82;67.29;100968.55;107059;1267;25416;-49
2023/03/16 05:30:27;;;;;;;6.40;4.40;;;;;;;10.88;67.21;100973.14;107092;1260;25322;-50
2023/03/16 05:32:57;;;;;;;4.90;4.50;;;;;;;10.91;67.30;100972.89;107342;1271;24361;-50
2023/03/16 05:35:26;;;;;;;4.70;4.30;;;;;;;10.95;67.27;100975.23;107082;1260;22748;-49
2023/03/16 05:37:59;;;;;;;5.30;4.80;;;;;;;11.00;67.20;100975.66;107054;1265;22538;-49
2023/03/16 05:40:30;;;;;;;6.50;5.00;;;;;;;11.05;67.21;100984.25;107175;1268;25392;-49
2023/03/16 05:43:06;;;;;;;6.20;4.90;;;;;;;11.10;67.16;100982.92;107176;1261;25350;-50
2023/03/16 05:45:40;;;;;;;6.30;5.70;;;;;;;11.13;66.99;100988.77;107099;1274;25347;-50
2023/03/16 05:48:13;;;;;;;7.30;6.60;;;;;;;11.13;66.87;100987.54;107124;1267;22532;-49
2023/03/16 05:50:46;;;;;;;5.80;5.30;;;;;;;11.11;66.85;100990.37;107229;1267;22520;-50
2023/03/16 05:53:16;;;;;;;7.30;5.70;;;;;;;11.09;67.10;100999.27;107013;1267;22745;-49
2023/03/16 05:55:50;;;;;;;6.10;5.50;;;;;;;11.11;67.25;100997.67;106864;1270;22534;-49
2023/03/16 05:58:20;;;;;;;6.70;6.10;;;;;;;11.14;67.30;101000.38;107328;1269;25361;-49
2023/03/16 06:00:49;;;;;;;6.60;6.00;;;;;;;11.19;67.40;101007.23;107233;1261;25294;-50
2023/03/16 06:03:27;;;;;;;6.80;5.90;;;;;;;11.24;67.34;101006.41;107227;1269;25332;-49
2023/03/16 06:05:56;;;;;;;8.70;6.90;;;;;;;11.26;67.33;101007.42;106995;1267;25223;-50
2023/03/16 06:08:30;;;;;;;7.40;6.70;;;;;;;11.32;67.37;101009.73;107172;1261;22756;-49
2023/03/16 06:11:07;;;;;;;9.30;7.30;;;;;;;11.37;67.28;101009.29;106989;1268;25345;-49
2023/03/16 06:13:37;;;;;;;7.90;7.10;;;;;;;11.43;67.29;101008.62;107013;1273;26490;-49
2023/03/16 06:16:13;;;;;;;7.10;6.40;;;;;;;11.48;66.89;101005.23;107041;1270;25372;-50
2023/03/16 06:18:45;;;;;;;7.70;6.80;;;;;;;11.49;66.76;100998.77;107149;1267;23146;-50
2023/03/16 06:21:14;;;;;;;11.40;6.80;;;;;;;11.51;66.79;101000.13;107137;1267;25369;-50
2023/03/16 06:23:45;;;;;;;7.60;6.90;;;;;;;11.56;66.98;101002.80;107183;1261;25370;-50
2023/03/16 06:26:14;;;;;;;8.10;7.20;;;;;;;11.62;66.79;100999.21;107086;1260;22603;-50
2023/03/16 06:28:44;;;;;;;9.30;7.80;;;;;;;11.64;66.44;101004.73;106938;1267;23899;-50
2023/03/16 06:31:13;;;;;;;10.20;7.80;;;;;;;11.63;66.45;101005.61;107042;1268;25479;-50
2023/03/16 06:33:44;;;;;;;8.80;7.40;;;;;;;11.64;66.39;101015.14;107263;1266;23222;-49
2023/03/16 06:36:14;;;;;;;9.80;8.60;;;;;;;11.64;66.39;101014.95;107106;1260;25368;-49
2023/03/16 06:38:47;;;;;;;10.70;9.40;;;;;;;11.67;66.40;101012.83;107244;1267;22535;-49
2023/03/16 06:41:25;;;;;;;11.00;9.50;;;;;;;11.75;66.51;101012.48;106978;1267;23584;-49
2023/03/16 06:43:54;;;;;;;10.10;9.00;;;;;;;11.83;66.45;101009.88;106956;1273;25352;-50
2023/03/16 06:46:23;;;;;;;10.30;9.30;;;;;;;11.90;66.27;101010.41;106982;1267;25291;-49
2023/03/16 06:48:59;;;;;;;10.80;9.60;;;;;;;11.95;66.02;101009.59;107070;1251;25359;-50
2023/03/16 06:51:29;;;;;;;13.20;10.20;;;;;;;11.97;65.81;101008.16;106882;1267;22586;-50
2023/03/16 06:53:57;;;;;;;11.20;9.40;;;;;;;12.00;65.79;101011.92;107072;1269;24235;-50
2023/03/16 06:56:26;;;;;;;15.40;10.70;;;;;;;12.07;65.81;101012.95;107082;1274;25342;-49
2023/03/16 06:58:56;;;;;;;11.10;9.80;;;;;;;12.15;65.60;101019.70;107208;1273;23240;-50
2023/03/16 07:01:25;;;;;;;12.70;11.30;;;;;;;12.22;65.31;101018.14;107054;1274;22946;-49
2023/03/16 07:03:54;;;;;;;13.00;10.30;;;;;;;12.23;65.31;101020.56;106772;1274;24208;-49
2023/03/16 07:06:27;;;;;;;12.00;10.70;;;;;;;12.25;65.30;101018.41;107092;1270;25353;-50
2023/03/16 07:08:56;;;;;;;11.40;10.20;;;;;;;12.28;65.09;101019.77;106932;1263;25359;-49
2023/03/16 07:11:25;;;;;;;12.70;11.30;;;;;;;12.28;64.88;101022.70;107314;1260;25485;-50
2023/03/16 07:13:54;;;;;;;12.70;11.20;;;;;;;12.25;64.84;101028.17;107516;1267;22999;-49
2023/03/16 07:16:24;;;;;;;12.80;11.50;;;;;;;12.23;64.71;101029.96;106706;1272;22771;-49
2023/03/16 07:18:54;;;;;;;12.20;10.70;;;;;;;12.20;64.57;101027.93;107368;1267;22659;-49
2023/03/16 07:21:23;;;;;;;13.50;11.00;;;;;;;12.19;64.61;101021.71;107082;1274;23899;-49
2023/03/16 07:23:52;;;;;;;12.70;11.00;;;;;;;12.19;64.52;101023.26;107160;1267;24359;-49
2023/03/16 07:26:24;;;;;;;13.90;11.10;;;;;;;12.24;64.54;101024.02;107164;1274;22548;-49
2023/03/16 07:28:56;;;;;;;14.00;11.40;;;;;;;12.30;64.41;101025.64;106913;1267;22639;-49
2023/03/16 07:31:26;;;;;;;17.70;13.50;;;;;;;12.32;64.24;101029.73;107287;1269;26495;-50
2023/03/16 07:33:56;;;;;;;13.80;11.50;;;;;;;12.31;63.93;101028.89;107267;1274;23300;-50
2023/03/16 07:36:40;;;;;;;13.90;12.10;;;;;;;12.33;63.90;101033.53;106824;1260;25526;-50
2023/03/16 07:39:12;;;;;;;17.20;13.60;;;;;;;12.33;63.65;101035.64;107267;1268;25472;-49
2023/03/16 07:41:41;;;;;;;13.50;11.10;;;;;;;12.27;63.48;101037.69;106991;1270;22601;-49
2023/03/16 07:44:18;;;;;;;10.40;8.90;;;;;;;12.17;63.45;101038.29;107044;1267;24342;-50
2023/03/16 07:46:52;;;;;;;8.90;8.00;;;;;;;12.07;63.59;101042.87;106942;1267;25370;-50
2023/03/16 07:49:24;;;;;;;8.90;8.00;;;;;;;11.99;63.79;101041.30;107179;1267;27089;-50
2023/03/16 07:51:53;;;;;;;9.90;8.90;;;;;;;11.94;63.94;101044.73;106998;1270;25444;-49
2023/03/16 07:54:24;;;;;;;11.50;9.20;;;;;;;11.90;64.20;101043.79;107200;1269;22663;-50
2023/03/16 07:56:53;;;;;;;7.60;6.70;;;;;;;11.91;64.41;101044.11;107034;1274;22526;-50
2023/03/16 07:59:27;;;;;;;7.00;5.90;;;;;;;11.95;64.48;101044.36;106995;1269;22531;-50
2023/03/16 08:01:56;;;;;;;8.50;7.00;;;;;;;11.97;64.44;101038.59;106830;1269;22756;-50
2023/03/16 08:04:26;;;;;;;10.80;8.00;;;;;;;11.99;64.59;101037.67;107132;1267;25349;-49
2023/03/16 08:06:59;;;;;;;13.30;8.50;;;;;;;12.02;64.69;101044.73;106999;1267;22593;-50
2023/03/16 08:09:34;;;;;;;8.60;6.50;;;;;;;12.05;64.76;101044.29;106994;1273;22536;-50
2023/03/16 08:12:07;;;;;;;7.50;6.80;;;;;;;12.11;64.95;101041.73;106805;1273;25386;-50
2023/03/16 08:14:36;;;;;;;9.30;7.10;;;;;;;12.19;64.73;101040.14;107108;1267;22527;-51
2023/03/16 08:17:11;;;;;;;6.80;5.90;;;;;;;12.29;64.64;101044.60;106992;1268;25344;-49
2023/03/16 08:19:47;;;;;;;6.90;6.20;;;;;;;12.41;64.54;101047.07;107053;1269;25475;-50
2023/03/16 08:22:16;;;;;;;9.70;7.30;;;;;;;12.52;64.23;101049.95;107171;1269;25455;-50
2023/03/16 08:24:47;;;;;;;7.20;6.50;;;;;;;12.60;63.97;101049.73;107021;1268;25363;-50
2023/03/16 08:27:19;;;;;;;7.60;6.80;;;;;;;12.69;63.75;101050.91;107065;1269;22549;-50
2023/03/16 08:29:51;;;;;;;8.80;6.90;;;;;;;12.81;63.50;101061.71;107047;1269;24256;-50
2023/03/16 08:32:27;;;;;;;9.10;6.50;;;;;;;12.91;62.91;101065.11;106761;1272;25344;-50
2023/03/16 08:34:57;;;;;;;8.00;7.00;;;;;;;12.97;62.56;101067.21;106768;1257;25662;-50
2023/03/16 08:37:27;;;;;;;6.60;5.80;;;;;;;13.02;62.36;101069.88;107041;1267;22899;-50
2023/03/16 08:39:59;;;;;;;7.80;7.00;;;;;;;13.05;62.32;101074.69;106820;1267;22542;-50
2023/03/16 08:42:28;;;;;;;;;;;;;;;13.10;62.27;101077.02;107100;1274;22604;-50
2023/03/16 08:45:08;;;;;;;7.40;6.30;;;;;;;13.16;61.90;101078.59;107116;1266;25391;-50
2023/03/16 08:47:41;;;;;;;6.90;5.40;;;;;;;13.18;61.77;101080.81;107003;1270;25433;-50
2023/03/16 08:50:14;;;;;;;7.60;6.20;;;;;;;13.19;61.31;101085.65;107117;1267;24193;-49
2023/03/16 08:52:43;;;;;;;7.00;6.30;;;;;;;13.20;61.04;101089.09;106898;1267;22650;-49
2023/03/16 08:55:12;;;;;;;7.10;6.30;;;;;;;13.24;61.02;101085.31;107116;1267;24236;-49
2023/03/16 08:57:40;;;;;;;7.20;6.10;;;;;;;13.28;60.82;101081.23;107165;1267;24205;-49
2023/03/16 09:00:13;;;;;;;6.60;5.90;;;;;;;13.30;60.50;101082.38;106793;1267;22599;-50
2023/03/16 09:02:42;;;;;;;6.10;5.40;;;;;;;13.33;60.13;101082.46;107025;1267;25233;-49
2023/03/16 09:05:11;;;;;;;6.10;5.40;;;;;;;13.32;59.90;101076.41;106871;1273;22524;-49
2023/03/16 09:07:41;;;;;;;5.80;5.20;;;;;;;13.38;59.54;101079.53;107183;1267;23932;-50
2023/03/16 09:10:13;;;;;;;8.50;5.90;;;;;;;13.43;59.49;101079.74;107144;1267;25322;-49
2023/03/16 09:12:42;;;;;;;6.60;5.60;;;;;;;13.49;59.48;101077.14;106886;1267;22524;-50
2023/03/16 09:15:12;;;;;;;6.60;5.90;;;;;;;13.51;59.40;101073.06;106763;1273;23904;-49
2023/03/16 09:17:43;;;;;;;7.40;6.60;;;;;;;13.56;59.51;101072.40;107106;1267;22779;-49
2023/03/16 09:20:15;;;;;;;7.00;6.30;;;;;;;13.58;59.63;101072.32;106813;1267;22532;-49
2023/03/16 09:23:00;;;;;;;7.40;6.80;;;;;;;13.71;58.93;101071.24;106960;1267;26733;-49
2023/03/16 09:25:31;;;;;;;6.00;5.50;;;;;;;13.76;58.68;101075.83;106957;1267;25341;-49
2023/03/16 09:27:59;;;;;;;7.90;6.70;;;;;;;13.82;58.81;101083.98;107120;1267;25392;-49
2023/03/16 09:30:30;;;;;;;6.90;6.20;;;;;;;13.89;58.39;101085.88;107197;1266;25357;-49
2023/03/16 09:32:59;;;;;;;6.40;5.70;;;;;;;13.94;58.05;101077.53;107029;1266;25418;-49
2023/03/16 09:35:31;;;;;;;;;;;;;;;13.97;57.83;101083.02;106989;1266;25328;-49
2023/03/16 09:38:03;;;;;;;5.60;5.10;;;;;;;14.02;57.72;101091.78;107070;1267;25328;-49
2023/03/16 09:40:34;;;;;;;7.10;6.00;;;;;;;14.06;57.47;101095.84;107017;1270;24273;-49
2023/03/16 09:43:28;;;;;;;7.00;6.40;;;;;;;14.05;57.40;101093.05;106857;1274;24270;-49
2023/03/16 09:46:04;;;;;;;6.50;5.90;;;;;;;14.00;57.41;101097.94;107009;1266;24240;-49
2023/03/16 09:48:34;;;;;;;7.00;5.60;;;;;;;13.99;57.53;101100.05;107160;1268;22523;-49
2023/03/16 09:51:05;;;;;;;7.60;6.10;;;;;;;14.02;57.45;101097.89;107140;1267;22517;-49
2023/03/16 09:53:35;;;;;;;6.20;5.60;;;;;;;14.01;57.23;101087.25;107086;1251;24415;-49
2023/03/16 09:56:25;;;;;;;8.20;6.80;;;;;;;13.98;57.17;101088.58;106836;1261;25348;-49
2023/03/16 09:58:54;;;;;;;9.40;7.10;;;;;;;13.95;57.17;101090.74;106755;1272;25481;-49
2023/03/16 10:01:26;;;;;;;8.30;7.10;;;;;;;13.93;57.20;101088.55;106710;1274;25328;-49
2023/03/16 10:03:59;;;;;;;8.40;6.60;;;;;;;13.87;57.25;101094.14;106694;1273;25108;-48
2023/03/16 10:06:28;;;;;;;7.10;6.30;;;;;;;13.84;57.31;101097.55;105939;1273;1003644;-49
2023/03/16 10:09:01;;;;;;;7.00;6.10;;;;;;;13.84;57.33;101096.31;106651;1281;22661;-49
2023/03/16 10:11:38;;;;;;;6.70;5.90;;;;;;;13.87;57.40;101093.78;106691;1272;25359;-49
2023/03/16 10:14:26;;;;;;;8.20;6.20;;;;;;;13.89;57.46;101092.67;106604;1273;22744;-49
2023/03/16 10:17:04;;;;;;;7.60;6.90;;;;;;;13.98;57.18;101090.66;106494;1280;22545;-48
2023/03/16 10:19:36;;;;;;;7.40;6.50;;;;;;;13.96;56.62;101091.42;106611;1272;25517;-49
2023/03/16 10:22:20;;;;;;;6.10;5.50;;;;;;;13.85;56.62;101092.61;106385;1278;22539;-49
2023/03/16 10:25:05;;;;;;;8.50;6.20;;;;;;;13.74;56.69;101098.20;106706;1272;25512;-49
2023/03/16 10:27:35;;;;;;;8.00;6.00;;;;;;;13.65;56.88;101098.11;106708;1273;25349;-49
2023/03/16 10:30:17;;;;;;;7.40;6.20;;;;;;;13.58;57.14;101092.89;106723;1273;25360;-49
2023/03/16 10:32:47;;;;;;;7.30;6.60;;;;;;;13.55;57.29;101090.02;106751;1272;22755;-49
2023/03/16 10:35:15;;;;;;;6.40;5.60;;;;;;;13.56;57.24;101092.44;106483;1277;22529;-49
2023/03/16 10:37:48;;;;;;;6.60;5.80;;;;;;;13.60;57.28;101092.67;107093;1268;25468;-49
2023/03/16 10:40:19;;;;;;;7.30;5.70;;;;;;;13.68;57.30;101089.31;107105;1266;23566;-49
2023/03/16 10:42:47;;;;;;;6.80;6.00;;;;;;;13.82;56.59;101088.52;107097;1266;22638;-49
2023/03/16 10:45:42;;;;;;;6.20;5.50;;;;;;;13.89;55.95;101087.27;107167;1257;22774;-49
2023/03/16 10:48:13;;;;;;;6.40;5.60;;;;;;;13.87;56.14;101088.73;106454;1277;25435;-48
2023/03/16 10:50:43;;;;;;;7.50;6.70;;;;;;;13.85;56.24;101095.59;106510;1279;24827;-48
2023/03/16 10:53:18;;;;;;;7.90;7.00;;;;;;;13.81;56.64;101092.76;106505;1274;24827;-49
2023/03/16 10:55:58;;;;;;;7.20;6.50;;;;;;;13.74;57.00;101090.16;106450;1273;25345;-49
2023/03/16 10:58:32;;;;;;;8.70;7.40;;;;;;;13.68;57.08;101086.85;106499;1276;22649;-49
2023/03/16 11:01:12;;;;;;;8.30;7.30;;;;;;;13.63;57.08;101090.66;106299;1277;25336;-49
2023/03/16 11:03:40;;;;;;;7.20;6.40;;;;;;;13.59;56.84;101086.79;106542;1273;24279;-48
2023/03/16 11:06:19;;;;;;;7.10;6.40;;;;;;;13.55;56.87;101086.02;106292;1278;25402;-48
2023/03/16 11:08:47;;;;;;;7.90;7.00;;;;;;;13.50;56.92;101088.41;106413;1276;22683;-48
2023/03/16 11:11:20;;;;;;;8.50;6.60;;;;;;;13.46;57.16;101094.29;106307;1281;22972;-48
2023/03/16 11:13:48;;;;;;;7.90;7.10;;;;;;;13.42;57.34;101095.10;106392;1278;25402;-49
2023/03/16 11:16:29;;;;;;;10.30;6.90;;;;;;;13.39;57.32;101096.06;106473;1278;25358;-49
2023/03/16 11:19:10;;;;;;;6.60;5.90;;;;;;;13.31;57.27;101094.73;106486;1275;22561;-49
2023/03/16 11:21:53;;;;;;;6.60;6.00;;;;;;;13.21;57.60;101100.05;106568;1274;25346;-49
2023/03/16 11:24:45;;;;;;;7.90;7.10;;;;;;;13.17;57.72;101099.99;106396;1280;24344;-49
2023/03/16 11:27:38;;;;;;;6.70;6.10;;;;;;;13.15;57.75;101103.70;107031;1270;22524;-48
2023/03/16 11:30:37;;;;;;;8.40;6.70;;;;;;;13.12;57.40;101109.17;106889;1260;25331;-48
2023/03/16 11:33:08;;;;;;;8.10;7.30;;;;;;;13.06;57.30;101111.39;106242;1276;22534;-49
2023/03/16 11:35:46;;;;;;;7.10;6.50;;;;;;;13.00;57.51;101113.63;106412;1276;22678;-49
2023/03/16 11:38:35;;;;;;;7.20;6.50;;;;;;;12.98;57.71;101114.36;106531;1274;25422;-49
2023/03/16 11:41:10;;;;;;;8.50;7.70;;;;;;;12.98;57.86;101117.16;106503;1275;22548;-48
2023/03/16 11:44:04;;;;;;;8.20;7.10;;;;;;;12.94;57.78;101118.15;106515;1275;25342;-48